CheckWX is a tool to help pilots better visualize weather data.  It is not intended as a substitute for an official pre-flight weather briefing.

14:43:30 UTC

KJER METAR
Jerome County Airport
Jerome, Idaho, USA
Current

51 mins ago

KJER 221353Z AUTO 19006KT 10SM SCT075 07/03 A3020 RMK AO2 SLP222 T00670028
Observed
Apr-22 @ 13:53 UTC
Wind
  • 190° at 6 KTS
Visibility
10 SM
Flight Rules
VFR
Cloud Levels
  • Scattered at 7,500' AGL
Temperature
C / 45°F
Dewpoint
C / 37°F
Humidity
76%
Altimeter
30.2" Hg
Pressure
1022.72 hPa
Previous

2 hours ago

KJER 221253Z AUTO 16005KT 10SM OVC080 06/02 A3018 RMK AO2 SLP213 T00610022
Observed
Apr-22 @ 12:53 UTC
Wind
  • 160° at 5 KTS
Visibility
10 SM
Flight Rules
VFR
Cloud Levels
  • Overcast at 8,000' AGL
Temperature
C / 43°F
Dewpoint
C / 36°F
Humidity
76%
Altimeter
30.18" Hg
Pressure
1022.02 hPa
Previous

3 hours ago

KJER 221153Z AUTO 18006KT 10SM OVC080 06/03 A3017 RMK AO2 SLP207 T00610028 10111 20061 52011
Observed
Apr-22 @ 11:53 UTC
Wind
  • 180° at 6 KTS
Visibility
10 SM
Flight Rules
VFR
Cloud Levels
  • Overcast at 8,000' AGL
Temperature
C / 43°F
Dewpoint
C / 37°F
Humidity
81%
Altimeter
30.17" Hg
Pressure
1021.72 hPa